sensor_id;sensor_type;location;lat;lon;timestamp;temperature;humidity
59075;DHT22;44860;53.020;6.738;2023-06-10T00:01:58;17.50;93.60
59075;DHT22;44860;53.020;6.738;2023-06-10T00:04:26;17.50;93.70
59075;DHT22;44860;53.020;6.738;2023-06-10T00:06:52;17.40;93.90
59075;DHT22;44860;53.020;6.738;2023-06-10T00:09:19;17.30;94.10
59075;DHT22;44860;53.020;6.738;2023-06-10T00:11:46;17.30;94.20
59075;DHT22;44860;53.020;6.738;2023-06-10T00:14:13;17.30;94.20
59075;DHT22;44860;53.020;6.738;2023-06-10T00:16:39;17.20;94.30
59075;DHT22;44860;53.020;6.738;2023-06-10T00:19:05;17.20;94.40
59075;DHT22;44860;53.020;6.738;2023-06-10T00:21:32;17.20;94.50
59075;DHT22;44860;53.020;6.738;2023-06-10T00:24:06;17.10;94.70
59075;DHT22;44860;53.020;6.738;2023-06-10T00:26:32;17.00;94.70
59075;DHT22;44860;53.020;6.738;2023-06-10T00:28:59;17.00;94.70
59075;DHT22;44860;53.020;6.738;2023-06-10T00:31:25;17.00;94.80
59075;DHT22;44860;53.020;6.738;2023-06-10T00:33:52;17.00;94.90
59075;DHT22;44860;53.020;6.738;2023-06-10T00:36:18;17.00;94.90
59075;DHT22;44860;53.020;6.738;2023-06-10T00:38:43;16.90;94.80
59075;DHT22;44860;53.020;6.738;2023-06-10T00:41:09;16.90;94.60
59075;DHT22;44860;53.020;6.738;2023-06-10T00:43:35;16.90;94.70
59075;DHT22;44860;53.020;6.738;2023-06-10T00:46:01;16.90;94.80
59075;DHT22;44860;53.020;6.738;2023-06-10T00:48:27;16.90;94.80
59075;DHT22;44860;53.020;6.738;2023-06-10T00:50:53;16.80;94.70
59075;DHT22;44860;53.020;6.738;2023-06-10T00:53:19;16.80;94.80
59075;DHT22;44860;53.020;6.738;2023-06-10T00:55:46;16.80;94.90
59075;DHT22;44860;53.020;6.738;2023-06-10T00:58:13;16.80;94.70
59075;DHT22;44860;53.020;6.738;2023-06-10T01:00:38;16.80;94.80
59075;DHT22;44860;53.020;6.738;2023-06-10T01:03:04;16.70;94.60
59075;DHT22;44860;53.020;6.738;2023-06-10T01:05:34;16.70;94.60
59075;DHT22;44860;53.020;6.738;2023-06-10T01:10:43;16.70;94.60
59075;DHT22;44860;53.020;6.738;2023-06-10T01:13:13;16.70;94.80
59075;DHT22;44860;53.020;6.738;2023-06-10T01:15:39;16.60;94.80
59075;DHT22;44860;53.020;6.738;2023-06-10T01:18:07;16.60;94.80
59075;DHT22;44860;53.020;6.738;2023-06-10T01:20:41;16.60;94.70
59075;DHT22;44860;53.020;6.738;2023-06-10T01:23:09;16.60;94.50
59075;DHT22;44860;53.020;6.738;2023-06-10T01:25:41;16.60;94.40
59075;DHT22;44860;53.020;6.738;2023-06-10T01:28:19;16.50;94.30
59075;DHT22;44860;53.020;6.738;2023-06-10T01:33:37;16.50;94.60
59075;DHT22;44860;53.020;6.738;2023-06-10T01:36:03;16.40;94.60
59075;DHT22;44860;53.020;6.738;2023-06-10T01:38:33;16.40;94.60
59075;DHT22;44860;53.020;6.738;2023-06-10T01:41:03;16.40;94.50
59075;DHT22;44860;53.020;6.738;2023-06-10T01:43:31;16.40;94.30
59075;DHT22;44860;53.020;6.738;2023-06-10T01:45:57;16.40;94.70
59075;DHT22;44860;53.020;6.738;2023-06-10T01:48:26;16.40;94.30
59075;DHT22;44860;53.020;6.738;2023-06-10T01:50:52;16.40;94.20
59075;DHT22;44860;53.020;6.738;2023-06-10T01:53:19;16.30;94.10
59075;DHT22;44860;53.020;6.738;2023-06-10T01:55:44;16.30;94.20
59075;DHT22;44860;53.020;6.738;2023-06-10T01:58:10;16.20;94.40
59075;DHT22;44860;53.020;6.738;2023-06-10T02:00:36;16.20;94.50
59075;DHT22;44860;53.020;6.738;2023-06-10T02:03:04;16.20;94.50
59075;DHT22;44860;53.020;6.738;2023-06-10T02:05:30;16.20;94.60
59075;DHT22;44860;53.020;6.738;2023-06-10T02:07:55;16.10;94.50
59075;DHT22;44860;53.020;6.738;2023-06-10T02:10:21;16.10;94.60
59075;DHT22;44860;53.020;6.738;2023-06-10T02:12:47;16.10;94.60
59075;DHT22;44860;53.020;6.738;2023-06-10T02:15:13;16.10;94.80
59075;DHT22;44860;53.020;6.738;2023-06-10T02:17:39;16.00;94.80
59075;DHT22;44860;53.020;6.738;2023-06-10T02:20:05;16.00;94.90
59075;DHT22;44860;53.020;6.738;2023-06-10T02:22:33;16.00;95.10
59075;DHT22;44860;53.020;6.738;2023-06-10T02:24:59;15.90;95.10
59075;DHT22;44860;53.020;6.738;2023-06-10T02:27:24;15.90;95.30
59075;DHT22;44860;53.020;6.738;2023-06-10T02:29:50;15.90;95.60
59075;DHT22;44860;53.020;6.738;2023-06-10T02:32:16;15.80;95.80
59075;DHT22;44860;53.020;6.738;2023-06-10T02:34:42;15.80;96.00
59075;DHT22;44860;53.020;6.738;2023-06-10T02:37:09;15.80;96.10
59075;DHT22;44860;53.020;6.738;2023-06-10T02:39:35;15.70;96.20
59075;DHT22;44860;53.020;6.738;2023-06-10T02:42:00;15.70;96.40
59075;DHT22;44860;53.020;6.738;2023-06-10T02:44:26;15.60;96.60
59075;DHT22;44860;53.020;6.738;2023-06-10T02:46:52;15.70;96.70
59075;DHT22;44860;53.020;6.738;2023-06-10T02:49:21;15.60;96.90
59075;DHT22;44860;53.020;6.738;2023-06-10T02:51:47;15.60;97.20
59075;DHT22;44860;53.020;6.738;2023-06-10T02:54:12;15.60;97.50
59075;DHT22;44860;53.020;6.738;2023-06-10T02:56:41;15.50;97.70
59075;DHT22;44860;53.020;6.738;2023-06-10T02:59:10;15.40;98.20
59075;DHT22;44860;53.020;6.738;2023-06-10T03:01:36;15.40;98.30
59075;DHT22;44860;53.020;6.738;2023-06-10T03:04:04;15.40;98.70
59075;DHT22;44860;53.020;6.738;2023-06-10T03:06:30;15.40;98.90
59075;DHT22;44860;53.020;6.738;2023-06-10T03:09:00;15.40;99.30
59075;DHT22;44860;53.020;6.738;2023-06-10T03:11:25;15.30;99.70
59075;DHT22;44860;53.020;6.738;2023-06-10T03:13:52;15.30;99.90
59075;DHT22;44860;53.020;6.738;2023-06-10T03:16:19;15.30;99.90
59075;DHT22;44860;53.020;6.738;2023-06-10T03:18:45;15.20;99.90
59075;DHT22;44860;53.020;6.738;2023-06-10T03:21:13;15.30;99.90
59075;DHT22;44860;53.020;6.738;2023-06-10T03:23:39;15.20;99.90
59075;DHT22;44860;53.020;6.738;2023-06-10T03:26:05;15.20;99.90
59075;DHT22;44860;53.020;6.738;2023-06-10T03:28:31;15.10;99.90
59075;DHT22;44860;53.020;6.738;2023-06-10T03:30:57;15.10;99.90
59075;DHT22;44860;53.020;6.738;2023-06-10T03:33:23;15.10;99.90
59075;DHT22;44860;53.020;6.738;2023-06-10T03:35:49;15.10;99.90
59075;DHT22;44860;53.020;6.738;2023-06-10T03:38:15;15.10;99.90
59075;DHT22;44860;53.020;6.738;2023-06-10T03:40:42;15.10;99.90
59075;DHT22;44860;53.020;6.738;2023-06-10T03:43:08;15.10;99.90
59075;DHT22;44860;53.020;6.738;2023-06-10T03:45:33;15.10;99.90
59075;DHT22;44860;53.020;6.738;2023-06-10T03:48:01;15.00;99.90
59075;DHT22;44860;53.020;6.738;2023-06-10T03:50:26;15.00;99.90
59075;DHT22;44860;53.020;6.738;2023-06-10T03:52:55;15.00;99.90
59075;DHT22;44860;53.020;6.738;2023-06-10T03:55:21;15.00;99.90
59075;DHT22;44860;53.020;6.738;2023-06-10T03:57:48;15.00;99.90
59075;DHT22;44860;53.020;6.738;2023-06-10T04:00:15;14.90;99.90
59075;DHT22;44860;53.020;6.738;2023-06-10T04:02:41;15.00;99.90
59075;DHT22;44860;53.020;6.738;2023-06-10T04:05:12;15.00;99.90
59075;DHT22;44860;53.020;6.738;2023-06-10T04:07:37;14.90;99.90
59075;DHT22;44860;53.020;6.738;2023-06-10T04:10:07;14.90;99.90
59075;DHT22;44860;53.020;6.738;2023-06-10T04:12:33;14.90;99.90
59075;DHT22;44860;53.020;6.738;2023-06-10T04:14:58;15.00;99.90
59075;DHT22;44860;53.020;6.738;2023-06-10T04:17:25;15.00;99.90
59075;DHT22;44860;53.020;6.738;2023-06-10T04:19:53;15.00;99.90
59075;DHT22;44860;53.020;6.738;2023-06-10T04:22:20;15.00;99.90
59075;DHT22;44860;53.020;6.738;2023-06-10T04:24:46;15.00;99.90
59075;DHT22;44860;53.020;6.738;2023-06-10T04:27:12;15.00;99.90
59075;DHT22;44860;53.020;6.738;2023-06-10T04:29:38;15.00;99.90
59075;DHT22;44860;53.020;6.738;2023-06-10T04:32:04;15.00;99.90
59075;DHT22;44860;53.020;6.738;2023-06-10T04:34:31;15.00;99.90
59075;DHT22;44860;53.020;6.738;2023-06-10T04:36:56;15.00;99.90
59075;DHT22;44860;53.020;6.738;2023-06-10T04:39:22;15.00;99.90
59075;DHT22;44860;53.020;6.738;2023-06-10T04:41:48;15.00;99.90
59075;DHT22;44860;53.020;6.738;2023-06-10T04:44:14;15.10;99.90
59075;DHT22;44860;53.020;6.738;2023-06-10T04:46:39;15.10;99.90
59075;DHT22;44860;53.020;6.738;2023-06-10T04:49:06;15.10;99.90
59075;DHT22;44860;53.020;6.738;2023-06-10T04:51:35;15.10;99.90
59075;DHT22;44860;53.020;6.738;2023-06-10T04:54:04;15.10;99.90
59075;DHT22;44860;53.020;6.738;2023-06-10T04:56:30;15.10;99.90
59075;DHT22;44860;53.020;6.738;2023-06-10T04:58:59;15.10;99.90
59075;DHT22;44860;53.020;6.738;2023-06-10T05:01:25;15.20;99.90
59075;DHT22;44860;53.020;6.738;2023-06-10T05:03:54;15.20;99.90
59075;DHT22;44860;53.020;6.738;2023-06-10T05:06:20;15.20;99.90
59075;DHT22;44860;53.020;6.738;2023-06-10T05:08:46;15.20;99.90
59075;DHT22;44860;53.020;6.738;2023-06-10T05:11:12;15.20;99.90
59075;DHT22;44860;53.020;6.738;2023-06-10T05:13:37;15.20;99.90
59075;DHT22;44860;53.020;6.738;2023-06-10T05:16:08;15.30;99.90
59075;DHT22;44860;53.020;6.738;2023-06-10T05:18:34;15.30;99.90
59075;DHT22;44860;53.020;6.738;2023-06-10T05:21:01;15.30;99.90
59075;DHT22;44860;53.020;6.738;2023-06-10T05:23:27;15.40;99.90
59075;DHT22;44860;53.020;6.738;2023-06-10T05:25:54;15.40;99.90
59075;DHT22;44860;53.020;6.738;2023-06-10T05:28:21;15.40;99.90
59075;DHT22;44860;53.020;6.738;2023-06-10T05:30:47;15.40;99.90
59075;DHT22;44860;53.020;6.738;2023-06-10T05:33:15;15.50;99.90
59075;DHT22;44860;53.020;6.738;2023-06-10T05:35:41;15.50;99.90
59075;DHT22;44860;53.020;6.738;2023-06-10T05:38:10;15.50;99.90
59075;DHT22;44860;53.020;6.738;2023-06-10T05:40:36;15.60;99.90
59075;DHT22;44860;53.020;6.738;2023-06-10T05:43:01;15.60;99.90
59075;DHT22;44860;53.020;6.738;2023-06-10T05:45:27;15.60;99.90
59075;DHT22;44860;53.020;6.738;2023-06-10T05:47:53;15.60;99.90
59075;DHT22;44860;53.020;6.738;2023-06-10T05:50:18;15.70;99.90
59075;DHT22;44860;53.020;6.738;2023-06-10T05:52:44;15.70;99.90
59075;DHT22;44860;53.020;6.738;2023-06-10T05:55:10;15.80;99.90
59075;DHT22;44860;53.020;6.738;2023-06-10T05:57:41;15.80;99.90
59075;DHT22;44860;53.020;6.738;2023-06-10T06:00:07;15.80;99.90
59075;DHT22;44860;53.020;6.738;2023-06-10T06:02:33;15.90;99.90
59075;DHT22;44860;53.020;6.738;2023-06-10T06:04:58;15.90;99.90
59075;DHT22;44860;53.020;6.738;2023-06-10T06:07:25;16.00;99.90
59075;DHT22;44860;53.020;6.738;2023-06-10T06:09:50;16.00;99.90
59075;DHT22;44860;53.020;6.738;2023-06-10T06:12:16;16.10;99.90
59075;DHT22;44860;53.020;6.738;2023-06-10T06:14:41;16.10;99.90
59075;DHT22;44860;53.020;6.738;2023-06-10T06:17:07;16.20;99.90
59075;DHT22;44860;53.020;6.738;2023-06-10T06:19:33;16.20;99.90
59075;DHT22;44860;53.020;6.738;2023-06-10T06:21:59;16.20;99.90
59075;DHT22;44860;53.020;6.738;2023-06-10T06:24:25;16.30;99.90
59075;DHT22;44860;53.020;6.738;2023-06-10T06:26:51;16.30;99.90
59075;DHT22;44860;53.020;6.738;2023-06-10T06:29:16;16.40;99.90
59075;DHT22;44860;53.020;6.738;2023-06-10T06:31:42;16.40;99.90
59075;DHT22;44860;53.020;6.738;2023-06-10T06:34:09;16.40;99.90
59075;DHT22;44860;53.020;6.738;2023-06-10T06:36:35;16.50;99.90
59075;DHT22;44860;53.020;6.738;2023-06-10T06:39:00;16.50;99.90
59075;DHT22;44860;53.020;6.738;2023-06-10T06:41:26;16.60;99.90
59075;DHT22;44860;53.020;6.738;2023-06-10T06:43:54;16.60;99.90
59075;DHT22;44860;53.020;6.738;2023-06-10T06:46:25;16.70;99.90
59075;DHT22;44860;53.020;6.738;2023-06-10T06:48:51;16.80;99.90
59075;DHT22;44860;53.020;6.738;2023-06-10T06:51:17;16.80;99.90
59075;DHT22;44860;53.020;6.738;2023-06-10T06:53:42;16.80;99.90
59075;DHT22;44860;53.020;6.738;2023-06-10T06:56:11;16.90;99.90
59075;DHT22;44860;53.020;6.738;2023-06-10T06:58:37;17.00;99.90
59075;DHT22;44860;53.020;6.738;2023-06-10T07:01:05;17.00;99.90
59075;DHT22;44860;53.020;6.738;2023-06-10T07:03:31;17.10;99.90
59075;DHT22;44860;53.020;6.738;2023-06-10T07:05:57;17.20;99.90
59075;DHT22;44860;53.020;6.738;2023-06-10T07:08:23;17.20;99.90
59075;DHT22;44860;53.020;6.738;2023-06-10T07:10:48;17.30;99.90
59075;DHT22;44860;53.020;6.738;2023-06-10T07:13:17;17.30;99.90
59075;DHT22;44860;53.020;6.738;2023-06-10T07:15:43;17.40;99.90
59075;DHT22;44860;53.020;6.738;2023-06-10T07:18:08;17.40;99.90
59075;DHT22;44860;53.020;6.738;2023-06-10T07:20:34;17.50;99.90
59075;DHT22;44860;53.020;6.738;2023-06-10T07:23:00;17.60;99.90
59075;DHT22;44860;53.020;6.738;2023-06-10T07:25:27;17.60;99.90
59075;DHT22;44860;53.020;6.738;2023-06-10T07:27:53;17.70;99.90
59075;DHT22;44860;53.020;6.738;2023-06-10T07:30:18;17.80;99.90
59075;DHT22;44860;53.020;6.738;2023-06-10T07:32:44;17.80;99.90
59075;DHT22;44860;53.020;6.738;2023-06-10T07:35:10;17.90;99.90
59075;DHT22;44860;53.020;6.738;2023-06-10T07:37:36;18.00;99.90
59075;DHT22;44860;53.020;6.738;2023-06-10T07:40:02;18.00;99.90
59075;DHT22;44860;53.020;6.738;2023-06-10T07:42:28;18.10;99.90
59075;DHT22;44860;53.020;6.738;2023-06-10T07:44:54;18.20;99.90
59075;DHT22;44860;53.020;6.738;2023-06-10T07:47:22;18.20;99.90
59075;DHT22;44860;53.020;6.738;2023-06-10T07:49:48;18.30;99.90
59075;DHT22;44860;53.020;6.738;2023-06-10T07:52:14;18.40;99.90
59075;DHT22;44860;53.020;6.738;2023-06-10T07:54:42;18.50;99.90
59075;DHT22;44860;53.020;6.738;2023-06-10T07:57:08;18.50;99.90
59075;DHT22;44860;53.020;6.738;2023-06-10T07:59:34;18.60;99.90
59075;DHT22;44860;53.020;6.738;2023-06-10T08:01:59;18.70;99.90
59075;DHT22;44860;53.020;6.738;2023-06-10T08:04:25;18.80;99.90
59075;DHT22;44860;53.020;6.738;2023-06-10T08:06:51;18.90;99.90
59075;DHT22;44860;53.020;6.738;2023-06-10T08:09:16;19.00;99.90
59075;DHT22;44860;53.020;6.738;2023-06-10T08:11:44;19.00;99.90
59075;DHT22;44860;53.020;6.738;2023-06-10T08:14:09;19.10;99.90
59075;DHT22;44860;53.020;6.738;2023-06-10T08:16:35;19.20;99.90
59075;DHT22;44860;53.020;6.738;2023-06-10T08:19:02;19.20;99.90
59075;DHT22;44860;53.020;6.738;2023-06-10T08:21:28;19.40;99.90
59075;DHT22;44860;53.020;6.738;2023-06-10T08:23:54;19.40;99.90
59075;DHT22;44860;53.020;6.738;2023-06-10T08:26:23;19.50;99.90
59075;DHT22;44860;53.020;6.738;2023-06-10T08:28:49;19.60;99.90
59075;DHT22;44860;53.020;6.738;2023-06-10T08:31:15;19.70;99.90
59075;DHT22;44860;53.020;6.738;2023-06-10T08:33:41;19.70;99.90
59075;DHT22;44860;53.020;6.738;2023-06-10T08:36:07;19.80;99.90
59075;DHT22;44860;53.020;6.738;2023-06-10T08:38:33;19.90;99.90
59075;DHT22;44860;53.020;6.738;2023-06-10T08:41:00;20.00;99.90
59075;DHT22;44860;53.020;6.738;2023-06-10T08:43:36;20.10;99.90
59075;DHT22;44860;53.020;6.738;2023-06-10T08:46:03;20.20;99.90
59075;DHT22;44860;53.020;6.738;2023-06-10T08:48:35;20.30;99.90
59075;DHT22;44860;53.020;6.738;2023-06-10T08:51:04;20.40;98.80
59075;DHT22;44860;53.020;6.738;2023-06-10T08:53:32;20.50;98.70
59075;DHT22;44860;53.020;6.738;2023-06-10T08:56:00;20.70;97.60
59075;DHT22;44860;53.020;6.738;2023-06-10T08:58:28;20.80;97.30
59075;DHT22;44860;53.020;6.738;2023-06-10T09:00:54;20.90;97.40
59075;DHT22;44860;53.020;6.738;2023-06-10T09:03:21;21.00;97.00
59075;DHT22;44860;53.020;6.738;2023-06-10T09:05:49;21.10;96.60
59075;DHT22;44860;53.020;6.738;2023-06-10T09:08:16;21.20;96.30
59075;DHT22;44860;53.020;6.738;2023-06-10T09:10:42;21.30;95.80
59075;DHT22;44860;53.020;6.738;2023-06-10T09:13:07;21.30;95.10
59075;DHT22;44860;53.020;6.738;2023-06-10T09:15:33;21.40;94.40
59075;DHT22;44860;53.020;6.738;2023-06-10T09:17:59;21.50;94.20
59075;DHT22;44860;53.020;6.738;2023-06-10T09:20:25;21.60;93.20
59075;DHT22;44860;53.020;6.738;2023-06-10T09:22:51;21.70;92.70
59075;DHT22;44860;53.020;6.738;2023-06-10T09:25:17;21.80;91.70
59075;DHT22;44860;53.020;6.738;2023-06-10T09:27:52;21.90;90.80
59075;DHT22;44860;53.020;6.738;2023-06-10T09:32:59;22.00;89.20
59075;DHT22;44860;53.020;6.738;2023-06-10T09:35:26;22.00;88.60
59075;DHT22;44860;53.020;6.738;2023-06-10T09:37:53;22.10;86.40
59075;DHT22;44860;53.020;6.738;2023-06-10T09:40:19;22.20;84.80
59075;DHT22;44860;53.020;6.738;2023-06-10T09:42:44;22.30;84.90
59075;DHT22;44860;53.020;6.738;2023-06-10T09:45:10;22.40;84.60
59075;DHT22;44860;53.020;6.738;2023-06-10T09:47:37;22.50;84.50
59075;DHT22;44860;53.020;6.738;2023-06-10T09:50:03;22.60;84.00
59075;DHT22;44860;53.020;6.738;2023-06-10T09:52:29;22.70;84.10
59075;DHT22;44860;53.020;6.738;2023-06-10T09:55:02;22.80;83.00
59075;DHT22;44860;53.020;6.738;2023-06-10T09:57:32;22.90;81.80
59075;DHT22;44860;53.020;6.738;2023-06-10T10:00:12;23.00;78.30
59075;DHT22;44860;53.020;6.738;2023-06-10T10:02:50;23.00;75.80
59075;DHT22;44860;53.020;6.738;2023-06-10T10:05:17;23.10;76.20
59075;DHT22;44860;53.020;6.738;2023-06-10T10:07:44;23.20;75.00
59075;DHT22;44860;53.020;6.738;2023-06-10T10:10:11;23.30;71.00
59075;DHT22;44860;53.020;6.738;2023-06-10T10:12:41;23.40;70.40
59075;DHT22;44860;53.020;6.738;2023-06-10T10:15:09;23.50;69.60
59075;DHT22;44860;53.020;6.738;2023-06-10T10:18:05;23.50;69.80
59075;DHT22;44860;53.020;6.738;2023-06-10T10:20:33;23.60;68.80
59075;DHT22;44860;53.020;6.738;2023-06-10T10:23:03;23.60;67.00
59075;DHT22;44860;53.020;6.738;2023-06-10T10:25:34;23.70;66.70
59075;DHT22;44860;53.020;6.738;2023-06-10T10:30:30;23.90;68.00
59075;DHT22;44860;53.020;6.738;2023-06-10T10:33:09;24.00;65.40
59075;DHT22;44860;53.020;6.738;2023-06-10T10:35:39;24.00;64.50
59075;DHT22;44860;53.020;6.738;2023-06-10T10:38:06;24.10;63.40
59075;DHT22;44860;53.020;6.738;2023-06-10T10:40:32;24.20;64.10
59075;DHT22;44860;53.020;6.738;2023-06-10T10:42:59;24.20;61.80
59075;DHT22;44860;53.020;6.738;2023-06-10T10:45:28;24.30;61.10
59075;DHT22;44860;53.020;6.738;2023-06-10T10:47:57;24.40;60.00
59075;DHT22;44860;53.020;6.738;2023-06-10T10:50:23;24.50;59.90
59075;DHT22;44860;53.020;6.738;2023-06-10T10:52:52;24.50;58.30
59075;DHT22;44860;53.020;6.738;2023-06-10T10:55:22;24.60;56.10
59075;DHT22;44860;53.020;6.738;2023-06-10T11:00:29;24.70;56.30
59075;DHT22;44860;53.020;6.738;2023-06-10T11:03:04;24.80;54.10
59075;DHT22;44860;53.020;6.738;2023-06-10T11:05:36;24.90;52.50
59075;DHT22;44860;53.020;6.738;2023-06-10T11:08:02;25.00;52.90
59075;DHT22;44860;53.020;6.738;2023-06-10T11:10:38;25.10;50.50
59075;DHT22;44860;53.020;6.738;2023-06-10T11:13:13;25.10;48.50
59075;DHT22;44860;53.020;6.738;2023-06-10T11:15:43;25.20;48.30
59075;DHT22;44860;53.020;6.738;2023-06-10T11:18:25;25.20;45.80
59075;DHT22;44860;53.020;6.738;2023-06-10T11:20:53;25.30;44.70
59075;DHT22;44860;53.020;6.738;2023-06-10T11:26:17;25.40;42.00
59075;DHT22;44860;53.020;6.738;2023-06-10T11:31:28;25.60;41.20
59075;DHT22;44860;53.020;6.738;2023-06-10T11:33:57;25.70;39.10
59075;DHT22;44860;53.020;6.738;2023-06-10T11:36:23;25.70;38.90
59075;DHT22;44860;53.020;6.738;2023-06-10T11:38:51;25.80;37.40
59075;DHT22;44860;53.020;6.738;2023-06-10T11:41:18;25.80;35.80
59075;DHT22;44860;53.020;6.738;2023-06-10T11:43:45;25.90;35.90
59075;DHT22;44860;53.020;6.738;2023-06-10T11:46:14;25.90;35.20
59075;DHT22;44860;53.020;6.738;2023-06-10T11:48:51;26.00;34.40
59075;DHT22;44860;53.020;6.738;2023-06-10T11:51:16;26.10;34.20
59075;DHT22;44860;53.020;6.738;2023-06-10T11:53:46;26.20;33.60
59075;DHT22;44860;53.020;6.738;2023-06-10T11:56:12;26.30;33.60
59075;DHT22;44860;53.020;6.738;2023-06-10T11:58:43;26.40;32.10
59075;DHT22;44860;53.020;6.738;2023-06-10T12:01:10;26.60;30.70
59075;DHT22;44860;53.020;6.738;2023-06-10T12:03:37;26.70;32.30
59075;DHT22;44860;53.020;6.738;2023-06-10T12:06:05;26.80;33.50
59075;DHT22;44860;53.020;6.738;2023-06-10T12:08:41;26.80;34.30
59075;DHT22;44860;53.020;6.738;2023-06-10T12:11:07;26.90;32.30
59075;DHT22;44860;53.020;6.738;2023-06-10T12:13:33;26.90;30.70
59075;DHT22;44860;53.020;6.738;2023-06-10T12:16:11;27.00;30.00
59075;DHT22;44860;53.020;6.738;2023-06-10T12:18:37;27.00;31.10
59075;DHT22;44860;53.020;6.738;2023-06-10T12:21:03;27.00;31.90
59075;DHT22;44860;53.020;6.738;2023-06-10T12:23:40;27.10;30.60
59075;DHT22;44860;53.020;6.738;2023-06-10T12:26:06;27.20;30.40
59075;DHT22;44860;53.020;6.738;2023-06-10T12:28:32;27.30;30.20
59075;DHT22;44860;53.020;6.738;2023-06-10T12:31:07;27.40;30.10
59075;DHT22;44860;53.020;6.738;2023-06-10T12:33:33;27.40;28.90
59075;DHT22;44860;53.020;6.738;2023-06-10T12:35:59;27.50;28.50
59075;DHT22;44860;53.020;6.738;2023-06-10T12:38:26;27.50;29.30
59075;DHT22;44860;53.020;6.738;2023-06-10T12:41:01;27.60;29.60
59075;DHT22;44860;53.020;6.738;2023-06-10T12:43:31;27.70;28.90
59075;DHT22;44860;53.020;6.738;2023-06-10T12:46:11;27.70;29.10
59075;DHT22;44860;53.020;6.738;2023-06-10T12:48:49;27.80;28.70
59075;DHT22;44860;53.020;6.738;2023-06-10T12:51:16;27.80;28.80
59075;DHT22;44860;53.020;6.738;2023-06-10T12:53:42;27.80;28.60
59075;DHT22;44860;53.020;6.738;2023-06-10T12:56:08;27.90;28.50
59075;DHT22;44860;53.020;6.738;2023-06-10T12:58:34;28.00;28.70
59075;DHT22;44860;53.020;6.738;2023-06-10T13:01:00;28.00;28.80
59075;DHT22;44860;53.020;6.738;2023-06-10T13:03:25;28.10;29.20
59075;DHT22;44860;53.020;6.738;2023-06-10T13:05:51;28.10;29.20
59075;DHT22;44860;53.020;6.738;2023-06-10T13:08:17;28.20;29.80
59075;DHT22;44860;53.020;6.738;2023-06-10T13:10:43;28.30;29.70
59075;DHT22;44860;53.020;6.738;2023-06-10T13:13:09;28.40;30.30
59075;DHT22;44860;53.020;6.738;2023-06-10T13:15:35;28.50;30.70
59075;DHT22;44860;53.020;6.738;2023-06-10T13:18:04;28.60;30.60
59075;DHT22;44860;53.020;6.738;2023-06-10T13:20:30;28.60;30.80
59075;DHT22;44860;53.020;6.738;2023-06-10T13:22:58;28.70;30.90
59075;DHT22;44860;53.020;6.738;2023-06-10T13:25:23;28.80;31.40
59075;DHT22;44860;53.020;6.738;2023-06-10T13:27:49;28.80;30.50
59075;DHT22;44860;53.020;6.738;2023-06-10T13:30:15;28.90;30.10
59075;DHT22;44860;53.020;6.738;2023-06-10T13:32:44;28.90;30.60
59075;DHT22;44860;53.020;6.738;2023-06-10T13:35:13;29.00;30.00
59075;DHT22;44860;53.020;6.738;2023-06-10T13:37:39;29.10;29.60
59075;DHT22;44860;53.020;6.738;2023-06-10T13:40:05;29.10;29.50
59075;DHT22;44860;53.020;6.738;2023-06-10T13:42:31;29.20;29.20
59075;DHT22;44860;53.020;6.738;2023-06-10T13:44:57;29.20;29.40
59075;DHT22;44860;53.020;6.738;2023-06-10T13:47:22;29.30;27.70
59075;DHT22;44860;53.020;6.738;2023-06-10T13:49:48;29.30;26.40
59075;DHT22;44860;53.020;6.738;2023-06-10T13:52:15;29.30;26.40
59075;DHT22;44860;53.020;6.738;2023-06-10T13:54:42;29.40;26.00
59075;DHT22;44860;53.020;6.738;2023-06-10T13:57:07;29.40;26.00
59075;DHT22;44860;53.020;6.738;2023-06-10T13:59:35;29.50;25.20
59075;DHT22;44860;53.020;6.738;2023-06-10T14:02:01;29.50;24.90
59075;DHT22;44860;53.020;6.738;2023-06-10T14:04:27;29.50;25.10
59075;DHT22;44860;53.020;6.738;2023-06-10T14:06:53;29.60;25.00
59075;DHT22;44860;53.020;6.738;2023-06-10T14:09:18;29.60;24.80
59075;DHT22;44860;53.020;6.738;2023-06-10T14:11:44;29.60;24.70
59075;DHT22;44860;53.020;6.738;2023-06-10T14:14:10;29.60;25.10
59075;DHT22;44860;53.020;6.738;2023-06-10T14:16:36;29.70;25.10
59075;DHT22;44860;53.020;6.738;2023-06-10T14:19:02;29.70;24.90
59075;DHT22;44860;53.020;6.738;2023-06-10T14:21:27;29.70;25.50
59075;DHT22;44860;53.020;6.738;2023-06-10T14:23:53;29.80;24.70
59075;DHT22;44860;53.020;6.738;2023-06-10T14:26:22;29.80;25.00
59075;DHT22;44860;53.020;6.738;2023-06-10T14:28:49;29.90;25.00
59075;DHT22;44860;53.020;6.738;2023-06-10T14:31:19;29.90;25.00
59075;DHT22;44860;53.020;6.738;2023-06-10T14:33:45;29.80;24.80
59075;DHT22;44860;53.020;6.738;2023-06-10T14:36:11;29.90;24.60
59075;DHT22;44860;53.020;6.738;2023-06-10T14:38:39;29.90;24.70
59075;DHT22;44860;53.020;6.738;2023-06-10T14:41:05;29.90;24.40
59075;DHT22;44860;53.020;6.738;2023-06-10T14:43:30;30.00;24.50
59075;DHT22;44860;53.020;6.738;2023-06-10T14:45:56;30.00;24.10
59075;DHT22;44860;53.020;6.738;2023-06-10T14:48:25;30.10;24.00
59075;DHT22;44860;53.020;6.738;2023-06-10T14:50:51;30.10;24.00
59075;DHT22;44860;53.020;6.738;2023-06-10T14:53:18;30.10;23.90
59075;DHT22;44860;53.020;6.738;2023-06-10T14:55:47;30.20;23.20
59075;DHT22;44860;53.020;6.738;2023-06-10T14:58:12;30.20;23.70
59075;DHT22;44860;53.020;6.738;2023-06-10T15:00:38;30.20;23.60
59075;DHT22;44860;53.020;6.738;2023-06-10T15:03:04;30.20;23.80
59075;DHT22;44860;53.020;6.738;2023-06-10T15:05:29;30.30;24.50
59075;DHT22;44860;53.020;6.738;2023-06-10T15:07:55;30.30;23.60
59075;DHT22;44860;53.020;6.738;2023-06-10T15:10:21;30.30;23.30
59075;DHT22;44860;53.020;6.738;2023-06-10T15:12:47;30.40;23.70
59075;DHT22;44860;53.020;6.738;2023-06-10T15:15:13;30.30;23.20
59075;DHT22;44860;53.020;6.738;2023-06-10T15:17:39;30.40;23.00
59075;DHT22;44860;53.020;6.738;2023-06-10T15:20:05;30.30;22.60
59075;DHT22;44860;53.020;6.738;2023-06-10T15:22:31;30.40;21.30
59075;DHT22;44860;53.020;6.738;2023-06-10T15:24:56;30.40;20.60
59075;DHT22;44860;53.020;6.738;2023-06-10T15:27:23;30.40;20.10
59075;DHT22;44860;53.020;6.738;2023-06-10T15:29:49;30.40;20.80
59075;DHT22;44860;53.020;6.738;2023-06-10T15:32:14;30.40;21.60
59075;DHT22;44860;53.020;6.738;2023-06-10T15:34:43;30.40;21.50
59075;DHT22;44860;53.020;6.738;2023-06-10T15:37:09;30.40;21.40
59075;DHT22;44860;53.020;6.738;2023-06-10T15:39:34;30.40;21.20
59075;DHT22;44860;53.020;6.738;2023-06-10T15:42:00;30.40;21.40
59075;DHT22;44860;53.020;6.738;2023-06-10T15:44:25;30.40;21.50
59075;DHT22;44860;53.020;6.738;2023-06-10T15:46:51;30.40;21.80
59075;DHT22;44860;53.020;6.738;2023-06-10T15:49:20;30.40;21.50